Time;durP1;ratioP1;P1;durP2;ratioP2;P2;SDS_P1;SDS_P2;PMS_P1;PMS_P2;Temp;Humidity;BMP_temperature;BMP_pressure;BME280_temperature;BME280_humidity;BME280_pressure;Samples;Min_cycle;Max_cycle;Signal;HPM_P1;HPM_P2
2021/12/22 00:01:27;;;;;;;13.80;13.20;;;16.80;69.30;;;;;;5033463;28;20999;-46
2021/12/22 00:03:55;;;;;;;13.30;12.80;;;16.80;69.40;;;;;;5033480;28;20552;-46
2021/12/22 00:06:26;;;;;;;14.10;13.50;;;16.80;69.50;;;;;;5033654;28;20484;-47
2021/12/22 00:08:53;;;;;;;15.30;14.57;;;16.80;69.50;;;;;;5033640;28;20448;-46
2021/12/22 00:11:20;;;;;;;15.20;14.50;;;16.80;69.30;;;;;;5033484;28;20465;-47
2021/12/22 00:13:47;;;;;;;14.70;14.00;;;16.80;69.40;;;;;;5032721;28;20448;-46
2021/12/22 00:16:13;;;;;;;13.83;13.20;;;16.80;69.50;;;;;;5033461;28;20523;-46
2021/12/22 00:18:40;;;;;;;14.60;13.90;;;16.80;69.80;;;;;;5033372;28;20445;-46
2021/12/22 00:21:07;;;;;;;13.87;13.27;;;16.80;69.60;;;;;;5033294;28;20495;-47
2021/12/22 00:23:35;;;;;;;14.00;13.50;;;16.80;69.60;;;;;;5033183;28;20451;-46
2021/12/22 00:26:02;;;;;;;14.17;13.47;;;16.90;69.30;;;;;;5033139;28;20820;-46
2021/12/22 00:28:28;;;;;;;13.87;13.23;;;16.80;69.30;;;;;;5033109;28;20449;-48
2021/12/22 00:30:56;;;;;;;14.10;13.50;;;16.80;69.40;;;;;;5033121;28;21053;-47
2021/12/22 00:33:23;;;;;;;15.03;14.30;;;16.90;69.10;;;;;;5032931;28;20453;-46
2021/12/22 00:35:49;;;;;;;14.87;14.17;;;16.90;69.30;;;;;;5033026;28;20450;-46
2021/12/22 00:38:18;;;;;;;14.23;13.57;;;16.90;69.10;;;;;;5033020;28;20448;-49
2021/12/22 00:40:47;;;;;;;14.37;13.77;;;16.80;69.00;;;;;;5033027;28;20460;-47
2021/12/22 00:43:14;;;;;;;15.03;14.23;;;16.70;69.40;;;;;;5032655;28;20453;-47
2021/12/22 00:45:42;;;;;;;14.40;13.60;;;16.60;69.80;;;;;;5032866;28;20481;-47
2021/12/22 00:48:10;;;;;;;13.13;12.63;;;16.70;69.80;;;;;;5032785;28;20453;-46
2021/12/22 00:50:39;;;;;;;13.60;13.10;;;16.70;69.60;;;;;;5032705;28;20445;-46
2021/12/22 00:53:06;;;;;;;13.93;13.33;;;16.70;69.70;;;;;;5032469;28;20473;-49
2021/12/22 00:55:33;;;;;;;13.97;13.47;;;16.70;69.80;;;;;;5032836;28;20520;-48
2021/12/22 00:58:01;;;;;;;14.63;13.97;;;16.70;69.80;;;;;;5032581;28;20456;-46
2021/12/22 01:00:28;;;;;;;13.13;12.60;;;16.70;69.80;;;;;;5032573;28;20456;-47
2021/12/22 01:02:55;;;;;;;14.00;13.40;;;16.60;70.10;;;;;;5032162;28;20477;-46
2021/12/22 01:05:22;;;;;;;13.23;12.63;;;16.50;70.30;;;;;;5032382;28;20484;-46
2021/12/22 01:07:50;;;;;;;14.20;13.50;;;16.50;70.60;;;;;;5032383;28;20942;-47
2021/12/22 01:10:20;;;;;;;14.30;13.70;;;16.50;70.90;;;;;;5032334;28;20449;-47
2021/12/22 01:12:47;;;;;;;13.73;13.13;;;16.50;71.10;;;;;;5032056;28;20465;-46
2021/12/22 01:15:16;;;;;;;13.30;12.80;;;16.60;71.10;;;;;;5032414;28;20484;-47
2021/12/22 01:17:46;;;;;;;14.70;14.10;;;16.60;70.80;;;;;;5032292;28;20449;-46
2021/12/22 01:20:21;;;;;;;13.80;13.20;;;16.60;70.60;;;;;;5032293;28;20437;-47
2021/12/22 01:22:49;;;;;;;14.40;13.70;;;16.50;70.70;;;;;;5031982;28;20895;-46
2021/12/22 01:25:19;;;;;;;13.60;13.00;;;16.50;71.00;;;;;;5031200;28;20579;-47
2021/12/22 01:27:46;;;;;;;14.10;13.40;;;16.50;71.10;;;;;;5032033;28;20484;-46
2021/12/22 01:30:19;;;;;;;13.47;12.87;;;16.50;71.20;;;;;;5031949;28;20507;-48
2021/12/22 01:32:46;;;;;;;13.30;12.70;;;16.60;71.20;;;;;;5031766;28;20473;-48
2021/12/22 01:35:15;;;;;;;13.90;13.27;;;16.50;71.10;;;;;;5031937;28;20444;-46
2021/12/22 01:37:41;;;;;;;13.50;13.00;;;16.50;71.10;;;;;;5031973;28;20445;-49
2021/12/22 01:40:11;;;;;;;13.33;12.83;;;16.50;71.00;;;;;;5031826;28;20633;-47
2021/12/22 01:42:40;;;;;;;13.03;12.40;;;16.50;71.10;;;;;;5031481;28;20850;-47
2021/12/22 01:45:26;;;;;;;13.33;12.73;;;16.40;71.80;;;;;;5031804;28;20484;-46
2021/12/22 01:50:41;;;;;;;13.03;12.53;;;16.40;71.90;;;;;;5031889;28;20479;-46
2021/12/22 01:53:28;;;;;;;13.63;12.97;;;16.40;72.00;;;;;;5031483;28;20502;-47
2021/12/22 01:56:05;;;;;;;13.10;12.53;;;16.50;71.80;;;;;;5031606;28;20445;-46
2021/12/22 01:58:34;;;;;;;12.90;12.40;;;16.40;71.80;;;;;;5031684;28;20440;-47
2021/12/22 02:01:02;;;;;;;13.73;13.17;;;16.50;72.00;;;;;;5031461;28;20460;-47
2021/12/22 02:03:30;;;;;;;13.90;13.10;;;16.50;71.70;;;;;;5047581;22;20490;-43
2021/12/22 02:05:56;;;;;;;14.13;13.53;;;16.50;71.80;;;;;;5011516;28;20855;-45
2021/12/22 02:08:23;;;;;;;14.40;13.80;;;16.50;71.60;;;;;;5011596;28;20453;-44
2021/12/22 02:10:50;;;;;;;13.77;13.17;;;16.40;71.80;;;;;;5011776;28;20742;-46
2021/12/22 02:13:22;;;;;;;14.00;13.40;;;16.50;72.00;;;;;;5011381;28;20474;-42
2021/12/22 02:15:49;;;;;;;13.37;12.77;;;16.50;71.70;;;;;;5011785;28;20811;-44
2021/12/22 02:18:19;;;;;;;14.33;13.63;;;16.50;71.80;;;;;;5011756;28;20472;-43
2021/12/22 02:20:49;;;;;;;12.60;12.00;;;16.40;71.70;;;;;;5011661;28;20822;-43
2021/12/22 02:23:16;;;;;;;13.60;13.10;;;16.40;72.00;;;;;;5011334;28;20469;-43
2021/12/22 02:25:48;;;;;;;14.17;13.57;;;16.40;72.20;;;;;;5011420;28;20485;-44
2021/12/22 02:28:20;;;;;;;13.87;13.27;;;16.50;71.90;;;;;;5011561;28;20509;-45
2021/12/22 02:30:47;;;;;;;12.70;12.17;;;16.50;71.80;;;;;;5011455;28;20512;-44
2021/12/22 02:36:11;;;;;;;13.73;13.13;;;16.30;72.40;;;;;;5010790;28;20468;-43
2021/12/22 02:38:41;;;;;;;13.83;13.30;;;16.30;72.50;;;;;;5015392;28;20442;-45
2021/12/22 02:41:12;;;;;;;13.83;13.23;;;16.30;72.50;;;;;;5015377;28;20993;-43
2021/12/22 02:43:45;;;;;;;14.07;13.27;;;16.30;72.40;;;;;;5015480;28;20469;-44
2021/12/22 02:46:12;;;;;;;12.97;12.50;;;16.20;72.80;;;;;;5015328;28;20485;-43
2021/12/22 02:48:40;;;;;;;13.60;13.00;;;16.30;72.90;;;;;;5015407;28;20454;-43
2021/12/22 02:51:08;;;;;;;13.40;12.90;;;16.40;72.60;;;;;;5015328;28;20453;-45
2021/12/22 02:53:42;;;;;;;13.00;12.40;;;16.30;72.60;;;;;;5014884;28;20473;-43
2021/12/22 02:56:25;;;;;;;14.47;13.60;;;16.30;72.60;;;;;;5015085;28;20446;-43
2021/12/22 02:59:01;;;;;;;13.50;12.90;;;16.30;72.50;;;;;;5015228;28;20821;-43
2021/12/22 03:01:53;;;;;;;13.50;12.93;;;16.30;72.50;;;;;;5014809;28;20854;-46
2021/12/22 03:04:21;;;;;;;13.50;12.73;;;16.30;72.70;;;;;;5014856;28;20931;-44
2021/12/22 03:06:54;;;;;;;13.60;12.90;;;16.20;72.70;;;;;;5014873;28;20535;-43
2021/12/22 03:09:23;;;;;;;13.70;13.10;;;16.30;73.60;;;;;;5015083;28;20450;-43
2021/12/22 03:11:52;;;;;;;13.97;13.37;;;16.20;72.80;;;;;;5014598;28;20465;-43
2021/12/22 03:14:20;;;;;;;14.00;13.40;;;16.20;73.00;;;;;;5014659;28;20452;-43
2021/12/22 03:16:48;;;;;;;14.20;13.50;;;16.20;73.10;;;;;;5014755;28;20452;-43
2021/12/22 03:19:16;;;;;;;13.00;12.50;;;16.20;73.20;;;;;;5014735;28;20446;-43
2021/12/22 03:21:44;;;;;;;13.17;12.67;;;16.20;73.00;;;;;;5014568;28;20456;-43
2021/12/22 03:24:13;;;;;;;13.90;13.10;;;16.20;73.10;;;;;;5014543;28;20947;-45
2021/12/22 03:26:43;;;;;;;13.20;12.70;;;16.20;73.10;;;;;;5014584;28;20485;-43
2021/12/22 03:29:11;;;;;;;13.87;13.10;;;16.20;73.00;;;;;;5014596;28;20449;-43
2021/12/22 03:31:38;;;;;;;14.10;13.40;;;16.20;72.60;;;;;;5014130;28;20455;-43
2021/12/22 03:34:05;;;;;;;14.40;13.80;;;16.30;72.50;;;;;;5014300;28;20453;-45
2021/12/22 03:36:32;;;;;;;13.43;12.87;;;16.30;72.40;;;;;;5014298;28;20449;-43
2021/12/22 03:38:59;;;;;;;14.87;14.20;;;16.20;72.60;;;;;;5014353;28;20473;-43
2021/12/22 03:41:27;;;;;;;14.97;14.17;;;16.20;72.60;;;;;;5014211;28;20456;-45
2021/12/22 03:43:54;;;;;;;14.73;14.13;;;16.20;72.40;;;;;;5014337;28;20523;-45
2021/12/22 03:46:20;;;;;;;14.13;13.53;;;16.30;72.20;;;;;;5014359;28;20805;-43
2021/12/22 03:48:47;;;;;;;14.30;13.70;;;16.10;72.50;;;;;;5013087;28;20457;-46
2021/12/22 03:51:14;;;;;;;14.57;13.97;;;16.10;73.40;;;;;;5014120;28;20469;-42
2021/12/22 03:53:41;;;;;;;14.47;13.67;;;16.00;73.20;;;;;;5013892;28;20470;-43
2021/12/22 03:56:08;;;;;;;14.93;14.33;;;16.00;73.50;;;;;;5013931;28;20438;-42
2021/12/22 03:58:36;;;;;;;14.20;13.67;;;16.10;73.70;;;;;;5013962;28;20994;-43
2021/12/22 04:01:03;;;;;;;14.47;13.87;;;16.00;73.60;;;;;;5013876;28;20449;-45
2021/12/22 04:03:33;;;;;;;14.23;13.53;;;16.00;73.60;;;;;;5013558;28;20488;-43
2021/12/22 04:06:00;;;;;;;14.10;13.50;;;16.00;73.90;;;;;;5013634;28;20823;-43
2021/12/22 04:08:27;;;;;;;14.40;13.80;;;16.00;74.00;;;;;;5013742;28;20454;-43
2021/12/22 04:10:53;;;;;;;14.97;14.33;;;16.00;74.30;;;;;;5013490;28;20450;-45
2021/12/22 04:13:20;;;;;;;14.97;14.27;;;15.90;75.00;;;;;;5013304;28;20470;-43
2021/12/22 04:15:49;;;;;;;15.17;14.47;;;16.00;75.10;;;;;;5013606;28;20862;-43
2021/12/22 04:18:16;;;;;;;14.47;13.97;;;16.00;75.20;;;;;;5013690;28;20591;-42
2021/12/22 04:20:43;;;;;;;13.63;13.13;;;16.00;75.20;;;;;;5013616;28;20795;-43
2021/12/22 04:23:10;;;;;;;14.43;13.80;;;16.10;74.70;;;;;;5013277;28;20476;-42
2021/12/22 04:25:38;;;;;;;14.27;13.67;;;16.10;74.90;;;;;;5013437;28;20517;-42
2021/12/22 04:28:09;;;;;;;14.60;13.93;;;16.10;74.90;;;;;;5013340;28;20492;-43
2021/12/22 04:30:38;;;;;;;13.83;13.23;;;16.10;75.00;;;;;;5013336;28;20443;-44
2021/12/22 04:33:07;;;;;;;13.90;13.30;;;16.00;75.30;;;;;;5013185;28;20466;-44
2021/12/22 04:35:34;;;;;;;14.40;13.80;;;16.00;75.50;;;;;;5013303;28;20446;-42
2021/12/22 04:38:01;;;;;;;14.40;13.80;;;16.00;75.90;;;;;;5013192;28;20448;-42
2021/12/22 04:40:28;;;;;;;14.70;14.10;;;16.00;75.80;;;;;;5013153;28;20453;-42
2021/12/22 04:42:55;;;;;;;14.30;13.70;;;15.90;75.90;;;;;;5012889;28;21006;-43
2021/12/22 04:45:22;;;;;;;14.83;14.07;;;16.00;76.00;;;;;;5012840;28;20452;-42
2021/12/22 04:47:50;;;;;;;13.73;13.13;;;15.90;76.10;;;;;;5013150;28;20446;-44
2021/12/22 04:50:21;;;;;;;14.73;14.10;;;15.90;76.40;;;;;;5012906;28;20453;-43
2021/12/22 04:52:54;;;;;;;15.77;14.97;;;16.00;76.60;;;;;;5012711;28;20568;-43
2021/12/22 04:55:21;;;;;;;14.47;13.87;;;16.00;76.30;;;;;;5012968;28;20450;-44
2021/12/22 04:57:48;;;;;;;14.77;14.07;;;16.00;76.20;;;;;;5012804;28;20457;-43
2021/12/22 05:00:16;;;;;;;15.00;14.30;;;15.90;76.30;;;;;;5012640;28;20970;-43
2021/12/22 05:02:43;;;;;;;15.07;14.37;;;16.00;76.70;;;;;;5012487;28;20477;-43
2021/12/22 05:05:10;;;;;;;15.87;15.17;;;15.90;76.50;;;;;;5012867;28;20446;-42
2021/12/22 05:07:38;;;;;;;15.33;14.63;;;16.00;76.40;;;;;;5012674;28;20987;-42
2021/12/22 05:10:06;;;;;;;15.07;14.47;;;16.00;76.40;;;;;;5012713;28;20449;-43
2021/12/22 05:12:33;;;;;;;15.20;14.50;;;15.90;76.70;;;;;;5012163;28;20497;-43
2021/12/22 05:15:00;;;;;;;15.17;14.47;;;15.90;76.80;;;;;;5012692;28;20453;-43
2021/12/22 05:17:39;;;;;;;15.23;14.53;;;15.90;76.80;;;;;;5012393;28;20828;-43
2021/12/22 05:20:07;;;;;;;14.70;14.10;;;15.90;76.70;;;;;;5012400;28;20442;-43
2021/12/22 05:22:34;;;;;;;15.20;14.50;;;15.90;77.20;;;;;;5012171;28;20832;-43
2021/12/22 05:25:02;;;;;;;16.07;15.47;;;15.90;77.10;;;;;;5012281;28;20448;-43
2021/12/22 05:27:30;;;;;;;15.67;15.00;;;15.90;76.80;;;;;;5012170;28;20481;-44
2021/12/22 05:29:57;;;;;;;15.77;15.10;;;15.90;77.00;;;;;;5012279;28;20472;-44
2021/12/22 05:32:29;;;;;;;15.30;14.60;;;15.90;76.70;;;;;;5011907;28;20461;-43
2021/12/22 05:34:56;;;;;;;15.87;15.17;;;15.90;76.80;;;;;;5012248;28;20453;-45
2021/12/22 05:37:22;;;;;;;14.90;14.30;;;15.90;77.00;;;;;;5011992;28;20446;-42
2021/12/22 05:39:49;;;;;;;16.10;15.40;;;15.90;77.20;;;;;;5011873;28;20814;-43
2021/12/22 05:42:19;;;;;;;15.00;14.40;;;15.90;77.30;;;;;;5011833;28;20601;-43
2021/12/22 05:44:45;;;;;;;15.67;14.97;;;15.90;77.40;;;;;;5012016;28;20492;-43
2021/12/22 05:47:12;;;;;;;14.80;14.20;;;15.80;77.40;;;;;;5011767;28;20489;-44
2021/12/22 05:49:40;;;;;;;14.90;14.30;;;15.90;77.80;;;;;;5012043;28;20810;-42
2021/12/22 05:52:07;;;;;;;15.53;14.83;;;16.50;81.30;;;;;;5011729;28;20509;-43
2021/12/22 05:54:34;;;;;;;15.77;15.17;;;17.70;75.60;;;;;;5011793;28;20449;-43
2021/12/22 05:57:01;;;;;;;15.60;15.00;;;18.30;69.60;;;;;;5012021;28;20446;-43
2021/12/22 05:59:29;;;;;;;16.07;15.37;;;18.60;66.20;;;;;;5011933;28;20490;-43
2021/12/22 06:01:55;;;;;;;15.63;15.00;;;18.80;64.20;;;;;;5011448;28;20485;-43
2021/12/22 06:04:22;;;;;;;15.93;15.17;;;18.90;62.30;;;;;;5011808;28;20453;-45
2021/12/22 06:06:49;;;;;;;14.90;14.20;;;19.00;61.00;;;;;;5011647;28;20855;-46
2021/12/22 06:09:15;;;;;;;15.10;14.50;;;19.00;60.00;;;;;;5011748;28;20855;-43
2021/12/22 06:11:42;;;;;;;15.00;14.33;;;19.10;59.80;;;;;;5011156;28;20850;-43
2021/12/22 06:14:09;;;;;;;15.40;14.80;;;19.10;59.20;;;;;;5011755;28;20453;-44
2021/12/22 06:16:37;;;;;;;15.23;14.53;;;19.10;58.70;;;;;;5011625;28;20541;-43
2021/12/22 06:19:08;;;;;;;15.60;14.90;;;19.10;58.50;;;;;;5011760;28;20449;-43
2021/12/22 06:21:35;;;;;;;14.93;14.43;;;19.10;58.20;;;;;;5011466;28;20450;-43
2021/12/22 06:24:02;;;;;;;15.60;15.00;;;19.20;57.90;;;;;;5011616;28;20446;-43
2021/12/22 06:26:28;;;;;;;15.97;15.33;;;19.10;57.50;;;;;;5011507;28;20484;-44
2021/12/22 06:28:55;;;;;;;15.70;15.00;;;19.20;57.40;;;;;;5011617;28;20465;-45
2021/12/22 06:31:22;;;;;;;14.53;14.03;;;19.10;57.20;;;;;;5011520;28;20457;-42
2021/12/22 06:33:50;;;;;;;15.70;15.03;;;19.10;57.00;;;;;;5011389;28;20465;-44
2021/12/22 06:36:18;;;;;;;14.70;14.10;;;19.20;56.80;;;;;;5011294;28;20445;-43
2021/12/22 06:38:44;;;;;;;15.43;14.83;;;19.10;56.50;;;;;;5011445;28;20457;-44
2021/12/22 06:41:11;;;;;;;15.20;14.60;;;19.10;56.60;;;;;;5011351;28;20442;-43
2021/12/22 06:43:38;;;;;;;14.37;13.87;;;19.10;56.30;;;;;;5011070;28;20466;-43
2021/12/22 06:46:05;;;;;;;14.83;14.23;;;19.10;56.20;;;;;;5011409;28;20486;-44
2021/12/22 06:48:31;;;;;;;14.33;13.83;;;19.00;56.20;;;;;;5011337;28;20453;-43
2021/12/22 06:50:59;;;;;;;14.93;14.33;;;19.00;56.10;;;;;;5011221;28;20445;-43
2021/12/22 06:53:26;;;;;;;15.30;14.70;;;18.90;56.00;;;;;;5011122;28;20549;-46
2021/12/22 06:55:53;;;;;;;14.70;14.10;;;18.90;56.10;;;;;;5011099;28;20505;-43
2021/12/22 06:58:20;;;;;;;14.77;14.17;;;19.00;55.90;;;;;;5011299;28;20442;-44
2021/12/22 07:00:46;;;;;;;15.07;14.47;;;19.10;55.60;;;;;;5011153;28;20461;-45
2021/12/22 07:03:13;;;;;;;14.50;14.00;;;19.10;55.30;;;;;;5010751;28;20477;-48
2021/12/22 07:05:40;;;;;;;15.13;14.53;;;19.10;55.30;;;;;;5011140;28;20452;-46
2021/12/22 07:08:08;;;;;;;14.80;14.30;;;19.00;55.20;;;;;;5011147;28;20485;-43
2021/12/22 07:10:34;;;;;;;14.20;13.70;;;19.00;55.30;;;;;;5009098;28;20453;-42
2021/12/22 07:13:01;;;;;;;12.50;12.00;;;18.90;55.30;;;;;;4999030;28;20473;-45
2021/12/22 07:15:28;;;;;;;11.43;11.13;;;18.80;55.30;;;;;;4998798;28;20450;-44
2021/12/22 07:17:55;;;;;;;11.37;10.97;;;18.60;55.60;;;;;;4999283;28;20457;-45
2021/12/22 07:20:23;;;;;;;11.90;11.57;;;18.50;56.10;;;;;;4999051;28;20453;-44
2021/12/22 07:22:50;;;;;;;12.03;11.63;;;18.50;57.80;;;;;;4998760;28;20848;-45
2021/12/22 07:25:23;;;;;;;11.40;11.00;;;18.40;57.90;;;;;;5001778;28;20453;-44
2021/12/22 07:27:53;;;;;;;11.67;11.30;;;19.10;58.70;;;;;;5003072;28;20486;-43
2021/12/22 07:30:19;;;;;;;11.50;11.13;;;19.90;57.40;;;;;;5002537;28;20942;-43
2021/12/22 07:32:46;;;;;;;11.13;10.80;;;20.20;56.00;;;;;;5002339;28;20473;-45
2021/12/22 07:35:18;;;;;;;12.07;11.57;;;20.60;55.50;;;;;;5002685;28;20446;-43
2021/12/22 07:37:51;;;;;;;12.20;11.70;;;21.10;54.70;;;;;;5002496;28;20446;-42
2021/12/22 07:40:20;;;;;;;11.03;10.63;;;21.70;53.20;;;;;;5002501;28;20468;-43
2021/12/22 07:42:47;;;;;;;11.87;11.47;;;22.00;52.00;;;;;;5002005;28;20591;-45
2021/12/22 07:45:14;;;;;;;12.13;11.63;;;22.10;51.00;;;;;;5002105;28;20880;-43
2021/12/22 07:47:41;;;;;;;12.07;11.67;;;22.10;50.50;;;;;;5002073;28;20489;-43
2021/12/22 07:50:09;;;;;;;11.47;10.97;;;22.10;50.20;;;;;;5002121;28;20792;-45
2021/12/22 07:52:36;;;;;;;11.00;10.60;;;22.20;50.00;;;;;;5001613;28;20474;-44
2021/12/22 07:55:04;;;;;;;10.97;10.60;;;22.20;49.60;;;;;;5002157;28;20446;-42
2021/12/22 07:57:32;;;;;;;12.53;12.13;;;22.30;49.60;;;;;;5002081;28;20446;-43
2021/12/22 07:59:59;;;;;;;12.27;11.77;;;22.40;49.40;;;;;;5002254;28;20454;-44
2021/12/22 08:02:26;;;;;;;11.73;11.33;;;22.70;48.80;;;;;;5034214;22;20490;-45
2021/12/22 08:04:52;;;;;;;11.83;11.43;;;23.40;48.00;;;;;;5033492;28;20450;-51
2021/12/22 08:07:19;;;;;;;12.63;12.13;;;24.00;47.40;;;;;;5041452;28;20483;-47
2021/12/22 08:09:45;;;;;;;10.70;10.30;;;24.00;45.90;;;;;;5024061;28;20471;-48
2021/12/22 08:12:12;;;;;;;12.40;12.00;;;23.90;45.70;;;;;;5021411;28;20647;-50
2021/12/22 08:14:43;;;;;;;13.83;13.33;;;24.10;45.50;;;;;;5021574;28;20452;-50
2021/12/22 08:17:10;;;;;;;13.70;13.20;;;24.30;45.20;;;;;;5021232;28;20441;-49
2021/12/22 08:19:37;;;;;;;14.30;13.80;;;24.50;44.80;;;;;;5021573;28;20457;-48
2021/12/22 08:22:04;;;;;;;13.90;13.40;;;24.90;44.30;;;;;;5021133;28;20496;-48
2021/12/22 08:24:31;;;;;;;14.13;13.63;;;24.90;43.70;;;;;;5021554;28;20911;-47
2021/12/22 08:26:58;;;;;;;13.17;12.67;;;24.70;43.80;;;;;;5021272;28;20487;-47
2021/12/22 08:29:26;;;;;;;13.63;13.13;;;24.80;43.70;;;;;;5021145;28;20449;-47
2021/12/22 08:31:54;;;;;;;12.97;12.57;;;24.90;43.40;;;;;;5021121;28;20450;-48
2021/12/22 08:34:26;;;;;;;12.50;12.10;;;24.70;43.30;;;;;;5020886;28;20909;-46
2021/12/22 08:39:38;;;;;;;14.03;13.43;;;25.10;42.90;;;;;;5021257;28;20996;-48
2021/12/22 08:42:05;;;;;;;13.87;13.37;;;25.00;42.90;;;;;;5021109;28;20542;-48
2021/12/22 08:44:33;;;;;;;13.63;13.13;;;25.00;42.90;;;;;;5021196;28;20445;-47
2021/12/22 08:47:01;;;;;;;12.80;12.40;;;25.20;42.70;;;;;;5021190;28;20511;-47
2021/12/22 08:49:28;;;;;;;13.30;12.90;;;25.20;42.60;;;;;;5021101;28;20816;-46
2021/12/22 08:51:54;;;;;;;13.87;13.37;;;25.30;42.40;;;;;;5020826;28;20464;-47
2021/12/22 08:54:22;;;;;;;11.48;11.07;;;25.20;42.40;;;;;;5020196;28;20453;-47
2021/12/22 08:56:49;;;;;;;10.30;9.90;;;25.50;42.60;;;;;;5020173;28;20465;-47
2021/12/22 08:59:17;;;;;;;14.03;13.43;;;26.00;41.80;;;;;;5021071;28;20646;-49
2021/12/22 09:01:45;;;;;;;13.80;13.30;;;26.10;41.20;;;;;;5020605;28;20452;-47
2021/12/22 09:04:14;;;;;;;12.80;12.20;;;26.10;40.90;;;;;;5019976;28;20461;-48
2021/12/22 09:06:42;;;;;;;13.30;12.80;;;26.00;41.00;;;;;;5020220;28;20524;-49
2021/12/22 09:09:10;;;;;;;12.10;11.70;;;26.00;40.90;;;;;;5019371;28;20441;-46
2021/12/22 09:11:39;;;;;;;13.87;13.37;;;25.90;40.40;;;;;;5020514;28;20236;-49
2021/12/22 09:14:08;;;;;;;14.30;13.80;;;26.20;40.10;;;;;;5020590;28;20472;-45
2021/12/22 09:16:36;;;;;;;13.13;12.63;;;26.10;40.10;;;;;;5020517;28;20828;-45
2021/12/22 09:19:04;;;;;;;14.80;14.20;;;25.90;40.30;;;;;;5020627;28;20456;-49
2021/12/22 09:21:34;;;;;;;14.40;13.90;;;25.90;40.40;;;;;;5020305;28;20538;-47
2021/12/22 09:24:02;;;;;;;14.70;14.10;;;25.70;40.50;;;;;;5020435;28;20548;-46
2021/12/22 09:26:29;;;;;;;13.10;12.70;;;25.70;40.70;;;;;;5020250;28;20448;-45
2021/12/22 09:28:56;;;;;;;11.10;10.70;;;25.90;40.80;;;;;;5019286;28;20453;-46
2021/12/22 09:31:24;;;;;;;13.43;12.93;;;26.00;40.30;;;;;;5020114;28;20819;-48
2021/12/22 09:33:52;;;;;;;14.80;14.30;;;26.50;39.70;;;;;;5019987;28;20503;-46
2021/12/22 09:36:20;;;;;;;14.07;13.57;;;26.50;39.10;;;;;;5020139;28;20895;-47
2021/12/22 09:38:48;;;;;;;13.80;13.40;;;26.50;39.00;;;;;;5020192;28;20556;-46
2021/12/22 09:41:16;;;;;;;13.23;12.83;;;26.30;39.00;;;;;;5020056;28;20445;-46
2021/12/22 09:43:43;;;;;;;14.97;14.40;;;26.10;39.30;;;;;;5020086;28;21075;-46
2021/12/22 09:46:15;;;;;;;13.50;12.80;;;26.40;39.40;;;;;;5019218;28;20523;-46
2021/12/22 09:48:59;;;;;;;13.30;12.90;;;26.80;38.80;;;;;;5019991;28;20481;-47
2021/12/22 09:54:14;;;;;;;14.40;13.90;;;26.70;38.40;;;;;;5020291;28;20491;-46
2021/12/22 09:56:42;;;;;;;14.07;13.47;;;26.50;38.90;;;;;;5019889;28;21083;-47
2021/12/22 09:59:11;;;;;;;13.10;12.70;;;26.20;39.20;;;;;;5019782;28;20453;-47
2021/12/22 10:01:38;;;;;;;14.40;13.90;;;26.40;39.20;;;;;;5019576;28;20460;-46
2021/12/22 10:04:06;;;;;;;14.80;14.30;;;26.60;39.30;;;;;;5019828;28;20492;-45
2021/12/22 10:06:33;;;;;;;14.80;14.20;;;26.80;39.20;;;;;;5020036;28;20452;-49
2021/12/22 10:09:03;;;;;;;14.93;14.43;;;27.00;38.90;;;;;;5019514;28;20572;-45
2021/12/22 10:11:34;;;;;;;14.17;13.57;;;26.90;38.80;;;;;;5019841;28;20449;-47
2021/12/22 10:14:01;;;;;;;12.40;12.00;;;26.70;39.10;;;;;;5018217;28;20460;-49
2021/12/22 10:16:30;;;;;;;14.90;14.30;;;26.50;39.50;;;;;;5015254;28;20641;-45
2021/12/22 10:19:06;;;;;;;11.90;11.50;;;26.80;39.60;;;;;;4999340;28;20443;-47
2021/12/22 10:21:36;;;;;;;14.80;14.30;;;27.10;39.00;;;;;;5000176;28;20216;-48
2021/12/22 10:24:06;;;;;;;15.00;14.50;;;27.50;38.10;;;;;;4999943;28;20963;-50
2021/12/22 10:26:35;;;;;;;15.30;14.70;;;27.40;37.80;;;;;;5014312;28;20476;-48
2021/12/22 10:29:05;;;;;;;14.10;13.60;;;27.20;38.50;;;;;;5018477;28;20457;-48
2021/12/22 10:31:39;;;;;;;15.00;14.50;;;27.00;38.80;;;;;;5018835;28;20198;-48
2021/12/22 10:34:07;;;;;;;15.90;15.20;;;27.00;39.00;;;;;;5019154;28;20476;-49
2021/12/22 10:36:45;;;;;;;16.30;15.80;;;27.10;38.90;;;;;;4999583;28;20461;-51
2021/12/22 10:39:21;;;;;;;14.60;14.10;;;27.30;38.70;;;;;;5003154;28;20461;-56
2021/12/22 10:41:51;;;;;;;15.60;15.10;;;27.20;38.50;;;;;;5011168;28;20444;-54
2021/12/22 10:44:18;;;;;;;14.75;14.05;;;27.30;38.60;;;;;;5013097;28;20943;-51
2021/12/22 10:46:46;;;;;;;14.83;14.23;;;27.20;38.60;;;;;;5030754;28;20209;-53
2021/12/22 10:49:14;;;;;;;15.50;14.90;;;27.20;38.40;;;;;;5029868;28;20874;-50
2021/12/22 10:51:42;;;;;;;15.60;15.10;;;27.30;38.40;;;;;;5030724;28;20454;-50
2021/12/22 10:54:12;;;;;;;14.77;14.20;;;27.40;38.40;;;;;;5031023;28;20472;-48
2021/12/22 10:56:41;;;;;;;15.53;14.67;;;27.80;38.10;;;;;;5030825;28;20822;-47
2021/12/22 10:59:12;;;;;;;14.10;13.60;;;27.90;37.70;;;;;;5033946;28;20450;-47
2021/12/22 11:01:41;;;;;;;14.97;14.47;;;28.00;37.60;;;;;;5034764;28;20456;-47
2021/12/22 11:04:24;;;;;;;14.80;14.20;;;28.00;37.60;;;;;;5034647;28;20990;-47
2021/12/22 11:06:53;;;;;;;14.57;14.03;;;27.90;37.50;;;;;;5034786;28;20548;-47
2021/12/22 11:09:23;;;;;;;15.90;15.30;;;27.80;37.60;;;;;;5034608;28;20493;-47
2021/12/22 11:11:52;;;;;;;15.20;14.70;;;28.00;37.70;;;;;;5034429;28;20849;-47
2021/12/22 11:14:23;;;;;;;15.50;14.90;;;28.40;37.40;;;;;;5034452;28;20480;-47
2021/12/22 11:16:59;;;;;;;14.70;14.30;;;28.40;37.00;;;;;;5034567;28;20869;-47
2021/12/22 11:19:28;;;;;;;13.87;13.47;;;28.30;37.00;;;;;;5034596;28;20444;-47
2021/12/22 11:22:02;;;;;;;14.60;14.17;;;28.30;37.10;;;;;;5034287;28;20810;-47
2021/12/22 11:24:31;;;;;;;13.77;13.37;;;28.30;37.10;;;;;;5034370;28;20536;-47
2021/12/22 11:26:58;;;;;;;13.30;12.80;;;28.40;37.10;;;;;;5034404;28;20768;-47
2021/12/22 11:29:27;;;;;;;13.63;13.23;;;28.90;36.80;;;;;;5034208;28;20485;-47
2021/12/22 11:31:55;;;;;;;14.70;14.23;;;29.00;36.40;;;;;;5034070;28;21004;-45
2021/12/22 11:34:23;;;;;;;15.40;15.00;;;29.00;36.20;;;;;;5034208;28;20448;-47
2021/12/22 11:36:51;;;;;;;14.33;13.93;;;28.80;36.30;;;;;;5034244;28;20488;-47
2021/12/22 11:39:20;;;;;;;14.70;14.30;;;28.80;36.50;;;;;;5034104;28;20483;-47
2021/12/22 11:44:33;;;;;;;16.03;15.50;;;28.90;36.50;;;;;;5033547;28;20958;-47
2021/12/22 11:47:02;;;;;;;15.40;14.90;;;29.20;36.40;;;;;;5034091;28;20449;-47
2021/12/22 11:49:34;;;;;;;15.27;14.77;;;29.40;36.10;;;;;;5033932;28;21025;-47
2021/12/22 11:52:01;;;;;;;15.57;15.07;;;29.20;35.90;;;;;;5033813;28;20449;-49
2021/12/22 11:54:29;;;;;;;14.00;13.60;;;29.20;36.00;;;;;;5033952;28;20759;-47
2021/12/22 11:56:57;;;;;;;15.50;14.90;;;29.10;36.00;;;;;;5033893;28;20441;-47
2021/12/22 11:59:30;;;;;;;16.43;15.93;;;29.00;36.20;;;;;;5033704;28;20821;-47
2021/12/22 12:02:33;;;;;;;14.97;14.50;;;28.80;36.30;;;;;;5033355;28;20518;-47
2021/12/22 12:05:16;;;;;;;15.13;14.73;;;29.10;36.50;;;;;;4972703;28;20439;-47
2021/12/22 12:07:51;;;;;;;14.70;14.30;;;29.40;36.20;;;;;;4972512;28;20536;-47
2021/12/22 12:10:43;;;;;;;14.80;14.40;;;29.50;35.80;;;;;;5009656;28;20484;-47
2021/12/22 12:13:22;;;;;;;14.80;14.40;;;29.40;35.70;;;;;;5033349;28;20465;-47
2021/12/22 12:22:11;;;;;;;14.13;13.70;;;29.50;36.00;;;;;;5033322;28;20900;-47
2021/12/22 12:24:41;;;;;;;14.10;13.70;;;29.80;35.70;;;;;;5033240;28;20453;-47
2021/12/22 12:27:31;;;;;;;14.87;14.47;;;29.90;35.50;;;;;;5033223;28;20930;-47
2021/12/22 12:30:00;;;;;;;15.10;14.60;;;29.90;35.40;;;;;;5033260;28;20455;-47
2021/12/22 12:32:58;;;;;;;15.17;14.67;;;29.90;35.30;;;;;;5032998;28;20467;-47
2021/12/22 12:35:28;;;;;;;14.10;13.70;;;29.70;35.20;;;;;;5033245;28;20445;-47
2021/12/22 12:38:05;;;;;;;14.97;14.47;;;29.70;35.40;;;;;;5033175;28;20480;-48
2021/12/22 12:41:21;;;;;;;14.47;14.07;;;30.00;35.50;;;;;;5032902;28;20531;-48
2021/12/22 12:44:06;;;;;;;14.67;14.27;;;30.10;35.20;;;;;;5032801;28;20461;-47
2021/12/22 12:46:49;;;;;;;13.90;13.50;;;29.90;35.10;;;;;;5032917;28;20436;-47
2021/12/22 12:49:33;;;;;;;14.60;14.10;;;30.00;35.20;;;;;;5032837;28;20830;-48
2021/12/22 12:52:06;;;;;;;14.93;14.53;;;30.00;35.20;;;;;;5032563;28;20453;-47
2021/12/22 12:54:39;;;;;;;15.00;14.60;;;30.10;35.20;;;;;;5032782;28;20861;-47
2021/12/22 12:57:31;;;;;;;13.93;13.53;;;30.30;35.10;;;;;;5032792;28;20456;-47
2021/12/22 13:00:06;;;;;;;14.90;14.50;;;30.40;34.90;;;;;;5032785;28;20447;-47